Time;durP1;ratioP1;P1;durP2;ratioP2;P2;SDS_P1;SDS_P2;PMS_P1;PMS_P2;Temp;Humidity;BMP_temperature;BMP_pressure;BME280_temperature;BME280_humidity;BME280_pressure;Samples;Min_cycle;Max_cycle;Signal;HPM_P1;HPM_P2
2021/01/23 00:02:02;;;;;;;38.75;19.50;;;;;;;6.25;85.09;98592.27;1792887;78;21994;-71
2021/01/23 00:04:28;;;;;;;37.95;20.08;;;;;;;6.24;84.87;98584.88;1794912;79;21602;-72
2021/01/23 00:06:53;;;;;;;38.20;20.40;;;;;;;6.16;85.22;98588.03;1798297;79;25289;-71
2021/01/23 00:09:19;;;;;;;43.75;20.25;;;;;;;6.16;84.97;98590.65;1809994;78;28321;-72
2021/01/23 00:11:45;;;;;;;39.63;19.82;;;;;;;6.11;85.05;98586.71;1809099;78;26789;-71
2021/01/23 00:14:11;;;;;;;38.73;18.98;;;;;;;6.09;85.06;98590.47;1807663;78;21811;-72
2021/01/23 00:16:37;;;;;;;37.98;19.40;;;;;;;6.09;84.93;98592.63;1813884;78;26893;-72
2021/01/23 00:19:02;;;;;;;39.75;20.00;;;;;;;6.07;84.73;98593.26;1816377;77;25190;-72
2021/01/23 00:21:28;;;;;;;38.38;20.80;;;;;;;6.07;84.85;98603.73;1813082;78;28798;-72
2021/01/23 00:23:54;;;;;;;43.63;22.25;;;;;;;6.06;84.67;98604.74;1811898;78;27247;-72
2021/01/23 00:26:19;;;;;;;39.60;20.95;;;;;;;6.05;84.45;98601.78;1810609;78;22469;-71
2021/01/23 00:28:45;;;;;;;44.25;22.98;;;;;;;5.99;84.41;98603.75;1815888;78;26779;-72
2021/01/23 00:31:12;;;;;;;38.98;21.55;;;;;;;5.88;84.94;98606.69;1808904;78;25322;-72
2021/01/23 00:33:38;;;;;;;39.35;21.93;;;;;;;5.82;85.07;98615.20;1776386;77;21191;-72
2021/01/23 00:36:05;;;;;;;43.58;22.37;;;;;;;5.81;85.09;98619.63;1812953;77;26772;-70
2021/01/23 00:38:31;;;;;;;45.55;23.80;;;;;;;5.67;85.30;98621.09;1786809;78;21586;-70
2021/01/23 00:40:56;;;;;;;42.48;23.95;;;;;;;5.50;86.06;98622.88;1806590;78;26835;-71
2021/01/23 00:43:22;;;;;;;46.75;25.30;;;;;;;5.43;86.41;98618.44;1811493;78;25317;-70
2021/01/23 00:45:48;;;;;;;44.88;23.67;;;;;;;5.35;86.64;98616.13;1809162;78;28350;-69
2021/01/23 00:48:14;;;;;;;44.75;23.07;;;;;;;5.36;86.58;98612.53;1817680;77;26739;-70
2021/01/23 00:50:40;;;;;;;43.17;23.22;;;;;;;5.45;86.44;98620.39;1811444;78;22299;-71
2021/01/23 00:53:06;;;;;;;36.77;21.50;;;;;;;5.48;86.16;98621.38;1810340;78;26836;-70
2021/01/23 00:55:31;;;;;;;40.88;23.18;;;;;;;5.51;86.00;98614.02;1814007;78;25332;-72
2021/01/23 00:57:57;;;;;;;44.33;24.18;;;;;;;5.53;85.58;98614.70;1813668;78;28333;-71
2021/01/23 01:00:23;;;;;;;45.30;24.25;;;;;;;5.57;85.29;98616.48;1814673;77;26774;-71
2021/01/23 01:02:49;;;;;;;45.20;22.82;;;;;;;5.54;85.24;98614.19;1808016;78;21896;-72
2021/01/23 01:05:15;;;;;;;38.42;22.35;;;;;;;5.55;85.15;98623.70;1811332;77;27300;-71
2021/01/23 01:07:41;;;;;;;41.75;22.60;;;;;;;5.51;84.93;98622.37;1812532;78;21215;-71
2021/01/23 01:10:09;;;;;;;37.42;21.17;;;;;;;5.52;84.88;98612.23;1815635;77;21132;-70
2021/01/23 01:12:34;;;;;;;42.58;22.10;;;;;;;5.49;84.72;98615.17;1815952;77;21152;-70
2021/01/23 01:15:00;;;;;;;48.98;24.27;;;;;;;5.51;84.60;98613.20;1815925;77;22112;-71
2021/01/23 01:17:26;;;;;;;42.78;23.47;;;;;;;5.54;84.40;98612.88;1818134;77;26895;-71
2021/01/23 01:19:52;;;;;;;43.58;24.05;;;;;;;5.51;84.23;98621.06;1817619;77;25336;-70
2021/01/23 01:22:18;;;;;;;43.25;23.42;;;;;;;5.51;84.07;98613.20;1813622;77;28337;-70
2021/01/23 01:24:43;;;;;;;42.38;22.98;;;;;;;5.48;84.15;98613.53;1812164;77;26803;-70
2021/01/23 01:27:09;;;;;;;42.65;22.48;;;;;;;5.47;84.07;98620.57;1815150;76;22006;-70
2021/01/23 01:29:35;;;;;;;41.65;23.50;;;;;;;5.44;84.02;98617.44;1815186;77;27219;-71
2021/01/23 01:32:00;;;;;;;41.70;23.20;;;;;;;5.40;84.05;98615.14;1814221;77;25368;-71
2021/01/23 01:34:26;;;;;;;47.95;24.80;;;;;;;5.34;83.88;98614.97;1814463;77;28281;-71
2021/01/23 01:36:52;;;;;;;41.30;23.25;;;;;;;5.32;83.94;98633.45;1814365;77;26641;-71
2021/01/23 01:39:18;;;;;;;45.38;24.15;;;;;;;5.23;84.15;98637.03;1816301;77;21863;-71
2021/01/23 01:41:44;;;;;;;41.40;22.77;;;;;;;5.20;84.25;98635.57;1812883;77;26851;-71
2021/01/23 01:44:10;;;;;;;42.45;22.75;;;;;;;5.12;84.37;98637.33;1812657;77;21179;-72
2021/01/23 01:46:36;;;;;;;42.93;23.25;;;;;;;5.16;84.40;98638.66;1817407;77;21172;-72
2021/01/23 01:49:03;;;;;;;42.05;22.62;;;;;;;5.12;84.49;98637.33;1813670;77;26743;-72
2021/01/23 01:51:29;;;;;;;40.80;23.47;;;;;;;5.10;84.45;98638.80;1816739;77;21784;-72
2021/01/23 01:53:55;;;;;;;42.35;23.50;;;;;;;5.17;84.19;98636.36;1813063;77;26888;-71
2021/01/23 01:56:21;;;;;;;43.30;24.05;;;;;;;5.15;83.95;98634.39;1811009;77;26144;-70
2021/01/23 01:58:46;;;;;;;41.25;23.12;;;;;;;5.14;83.89;98638.82;1816650;77;28523;-69
2021/01/23 02:01:12;;;;;;;43.95;23.07;;;;;;;5.11;83.87;98648.30;1815192;77;26727;-71
2021/01/23 02:04:15;;;;;;;36.23;21.33;;;;;;;5.06;84.06;98642.69;1817831;77;21816;-70
2021/01/23 02:07:10;;;;;;;38.05;20.43;;;;;;;5.07;83.95;98643.53;1813610;77;21327;-71
2021/01/23 02:09:53;;;;;;;35.52;21.37;;;;;;;4.90;84.50;98651.30;1805713;77;21170;-72
2021/01/23 02:12:30;;;;;;;40.88;22.85;;;;;;;4.76;85.27;98650.59;1798542;79;21126;-71
2021/01/23 02:15:10;;;;;;;35.95;20.68;;;;;;;4.68;85.60;98649.56;1798964;78;21438;-70
2021/01/23 02:17:52;;;;;;;36.55;21.00;;;;;;;4.55;85.94;98645.73;1801168;78;21105;-70
2021/01/23 02:20:50;;;;;;;36.00;20.45;;;;;;;4.61;85.86;98640.69;1798450;77;21182;-70
2021/01/23 02:23:25;;;;;;;35.83;20.08;;;;;;;4.67;85.60;98637.45;1802387;77;21243;-70
2021/01/23 02:26:10;;;;;;;36.75;20.52;;;;;;;4.78;85.31;98631.13;1798446;79;21230;-71
2021/01/23 02:29:04;;;;;;;38.78;20.80;;;;;;;4.84;84.92;98641.47;1801310;79;21088;-71
2021/01/23 02:31:38;;;;;;;37.08;21.35;;;;;;;4.84;84.85;98648.01;1805149;77;21126;-70
2021/01/23 02:34:04;;;;;;;42.38;21.85;;;;;;;4.85;84.63;98654.89;1799534;79;21224;-71
2021/01/23 02:36:30;;;;;;;38.65;20.90;;;;;;;4.86;84.42;98648.66;1802796;78;21464;-71
2021/01/23 02:38:56;;;;;;;36.25;20.15;;;;;;;4.90;84.19;98657.03;1801902;79;28649;-71
2021/01/23 02:41:21;;;;;;;36.53;20.25;;;;;;;4.90;83.94;98650.00;1773041;79;26833;-71
2021/01/23 02:43:47;;;;;;;35.35;20.50;;;;;;;4.88;83.91;98653.73;1799619;79;22349;-70
2021/01/23 02:46:16;;;;;;;36.58;19.80;;;;;;;4.85;83.87;98664.04;1776162;79;26738;-70
2021/01/23 02:48:42;;;;;;;36.45;20.12;;;;;;;4.81;83.84;98658.78;1793696;79;21222;-71
2021/01/23 02:51:22;;;;;;;35.80;20.15;;;;;;;4.87;83.84;98663.88;1797448;79;28293;-70
2021/01/23 02:53:49;;;;;;;36.00;20.77;;;;;;;4.81;83.71;98669.24;1797652;79;21206;-71
2021/01/23 02:56:17;;;;;;;38.30;21.80;;;;;;;4.81;83.79;98669.24;1798484;79;21229;-71
2021/01/23 02:58:43;;;;;;;36.35;21.95;;;;;;;4.82;83.64;98674.81;1799303;79;21155;-71
2021/01/23 03:01:09;;;;;;;38.10;21.55;;;;;;;4.82;83.48;98678.73;1801167;79;25412;-72
2021/01/23 03:03:35;;;;;;;36.98;20.05;;;;;;;4.79;83.51;98682.97;1802545;77;28336;-71
2021/01/23 03:06:04;;;;;;;38.50;21.35;;;;;;;4.77;83.67;98685.73;1802769;79;26955;-71
2021/01/23 03:08:31;;;;;;;37.80;20.97;;;;;;;4.73;83.44;98679.67;1797624;78;21032;-71
2021/01/23 03:10:56;;;;;;;37.28;20.97;;;;;;;4.71;83.36;98681.59;1812550;77;21137;-71
2021/01/23 03:13:22;;;;;;;37.80;20.90;;;;;;;4.73;83.26;98672.63;1811825;77;25396;-71
2021/01/23 03:15:48;;;;;;;39.80;21.87;;;;;;;4.70;83.23;98670.33;1817786;77;28485;-71
2021/01/23 03:18:14;;;;;;;42.62;23.62;;;;;;;4.68;83.25;98675.71;1815622;77;26785;-71
2021/01/23 03:20:40;;;;;;;40.55;22.17;;;;;;;4.70;83.11;98672.94;1815877;77;21876;-71
2021/01/23 03:23:05;;;;;;;40.47;22.67;;;;;;;4.67;82.93;98665.41;1810065;77;26239;-71
2021/01/23 03:25:31;;;;;;;39.67;21.17;;;;;;;4.60;82.92;98665.22;1813312;77;26017;-70
2021/01/23 03:27:57;;;;;;;36.88;21.17;;;;;;;4.57;83.06;98668.60;1812094;77;28659;-71
2021/01/23 03:30:24;;;;;;;34.75;20.35;;;;;;;4.55;83.12;98668.76;1808908;77;26816;-71
2021/01/23 03:32:50;;;;;;;36.75;21.25;;;;;;;4.52;83.17;98673.48;1813687;77;21395;-71
2021/01/23 03:35:17;;;;;;;38.90;20.48;;;;;;;4.54;82.99;98671.06;1811436;77;21648;-70
2021/01/23 03:37:42;;;;;;;37.03;21.13;;;;;;;4.49;83.07;98669.41;1813372;77;21505;-71
2021/01/23 03:40:10;;;;;;;38.08;21.62;;;;;;;4.48;83.25;98676.91;1815361;77;28344;-70
2021/01/23 03:42:36;;;;;;;40.52;21.55;;;;;;;4.46;83.11;98679.67;1815867;77;26556;-71
2021/01/23 03:45:03;;;;;;;36.68;21.30;;;;;;;4.44;83.20;98686.01;1809762;77;21348;-72
2021/01/23 03:47:28;;;;;;;40.97;22.30;;;;;;;4.38;83.34;98678.78;1812410;77;21680;-72
2021/01/23 03:49:54;;;;;;;39.57;22.13;;;;;;;4.34;83.57;98680.08;1812140;77;23938;-72
2021/01/23 03:52:20;;;;;;;36.98;20.80;;;;;;;4.35;83.57;98669.94;1809597;77;28399;-73
2021/01/23 03:54:46;;;;;;;38.80;20.02;;;;;;;4.33;83.67;98661.44;1812279;77;26768;-72
2021/01/23 03:57:11;;;;;;;37.65;21.10;;;;;;;4.27;83.84;98667.63;1809591;77;21398;-73
2021/01/23 03:59:37;;;;;;;33.58;19.70;;;;;;;4.27;83.97;98657.17;1812451;77;26804;-72
2021/01/23 04:02:04;;;;;;;41.53;21.77;;;;;;;4.23;84.01;98661.05;1812924;77;25840;-72
2021/01/23 04:04:29;;;;;;;40.75;22.50;;;;;;;4.20;84.40;98641.75;1813306;77;21188;-72
2021/01/23 04:06:56;;;;;;;40.28;21.90;;;;;;;4.06;84.75;98633.17;1811566;77;26665;-72
2021/01/23 04:09:21;;;;;;;37.28;21.60;;;;;;;4.00;85.45;98635.89;1819480;77;21334;-71
2021/01/23 04:11:47;;;;;;;40.80;20.53;;;;;;;4.05;85.69;98627.60;1833407;77;25644;-71
2021/01/23 04:14:13;;;;;;;38.07;21.13;;;;;;;4.06;85.60;98638.39;1835291;77;23673;-72
2021/01/23 04:16:39;;;;;;;36.40;20.62;;;;;;;4.12;85.51;98636.48;1832495;77;28339;-72
2021/01/23 04:19:05;;;;;;;38.33;20.57;;;;;;;4.13;85.53;98636.80;1830132;77;26753;-73
2021/01/23 04:21:31;;;;;;;41.58;21.40;;;;;;;4.14;85.30;98648.40;1834040;77;22171;-72
2021/01/23 04:23:58;;;;;;;43.05;22.95;;;;;;;4.18;85.21;98638.48;1827376;77;21216;-73
2021/01/23 04:26:24;;;;;;;45.52;23.83;;;;;;;4.23;85.12;98627.58;1835928;77;21142;-72
2021/01/23 04:28:49;;;;;;;40.60;22.58;;;;;;;4.27;84.96;98617.97;1828222;77;28450;-73
2021/01/23 04:31:15;;;;;;;39.53;22.50;;;;;;;4.25;85.23;98623.81;1826514;77;26735;-72
2021/01/23 04:33:41;;;;;;;38.35;22.48;;;;;;;4.25;85.45;98613.86;1828454;77;21885;-72
2021/01/23 04:36:07;;;;;;;39.00;21.27;;;;;;;4.19;85.57;98611.37;1827584;76;26091;-72
2021/01/23 04:38:33;;;;;;;40.40;22.22;;;;;;;4.19;85.94;98617.90;1828123;77;21172;-72
2021/01/23 04:40:58;;;;;;;39.63;21.50;;;;;;;4.21;85.92;98626.42;1830765;77;28376;-72
2021/01/23 04:43:24;;;;;;;40.75;23.02;;;;;;;4.22;85.95;98612.37;1829303;77;26727;-72
2021/01/23 04:45:50;;;;;;;40.78;22.40;;;;;;;4.27;85.83;98615.36;1828605;77;21407;-71
2021/01/23 04:48:17;;;;;;;41.83;23.05;;;;;;;4.30;85.79;98606.37;1831130;77;27446;-71
2021/01/23 04:50:44;;;;;;;43.08;24.10;;;;;;;4.37;85.70;98611.83;1829038;77;21145;-71
2021/01/23 04:53:10;;;;;;;43.58;23.12;;;;;;;4.43;85.61;98607.29;1825469;77;21131;-71
2021/01/23 04:55:36;;;;;;;42.40;22.52;;;;;;;4.42;85.62;98597.80;1833175;77;27288;-71
2021/01/23 04:58:02;;;;;;;40.45;21.57;;;;;;;4.35;85.97;98585.00;1828065;77;22406;-71
2021/01/23 05:00:28;;;;;;;42.83;22.30;;;;;;;4.31;86.42;98582.70;1829492;77;21207;-71
2021/01/23 05:03:02;;;;;;;35.68;20.43;;;;;;;4.23;87.03;98576.63;1835065;77;23770;-71
2021/01/23 05:05:28;;;;;;;39.08;21.30;;;;;;;4.29;86.97;98576.82;1840285;76;21414;-72
2021/01/23 05:07:54;;;;;;;38.48;20.75;;;;;;;4.37;87.03;98573.93;1827720;77;21173;-72
2021/01/23 05:10:23;;;;;;;36.28;20.02;;;;;;;4.42;86.83;98562.52;1832497;77;21869;-72
2021/01/23 05:12:53;;;;;;;37.45;21.20;;;;;;;4.46;86.65;98558.63;1831653;76;21210;-72
2021/01/23 05:15:31;;;;;;;37.67;22.32;;;;;;;4.47;86.33;98561.08;1826835;77;21618;-71
2021/01/23 05:18:06;;;;;;;41.63;22.13;;;;;;;4.45;86.36;98559.59;1831713;77;21578;-71
2021/01/23 05:20:47;;;;;;;40.45;20.97;;;;;;;4.44;86.56;98571.01;1802771;77;21150;-72
2021/01/23 05:23:26;;;;;;;38.45;20.95;;;;;;;4.39;86.78;98566.74;1834891;77;21177;-72
2021/01/23 05:25:58;;;;;;;42.95;21.15;;;;;;;4.38;86.98;98563.78;1774262;79;21598;-71
2021/01/23 05:28:38;;;;;;;42.65;21.50;;;;;;;4.41;87.06;98564.78;1834180;77;21167;-72
2021/01/23 05:31:07;;;;;;;40.95;21.77;;;;;;;4.39;87.23;98560.21;1835144;77;21588;-73
2021/01/23 05:33:34;;;;;;;40.17;21.07;;;;;;;4.39;87.29;98554.98;1828477;77;22224;-72
2021/01/23 05:36:09;;;;;;;42.00;22.00;;;;;;;4.36;87.76;98553.98;1829926;77;21216;-70
2021/01/23 05:38:44;;;;;;;41.13;21.55;;;;;;;4.38;87.66;98548.11;1831988;77;21170;-71
2021/01/23 05:41:13;;;;;;;38.45;20.90;;;;;;;4.42;87.58;98558.09;1830451;77;21206;-68
2021/01/23 05:43:48;;;;;;;45.40;22.50;;;;;;;4.43;87.60;98581.16;1828911;77;21235;-70
2021/01/23 05:46:30;;;;;;;37.93;20.32;;;;;;;4.49;87.63;98590.98;1829407;77;21219;-71
2021/01/23 05:48:57;;;;;;;38.63;20.32;;;;;;;4.53;87.61;98571.38;1827586;77;21216;-70
2021/01/23 05:51:23;;;;;;;38.47;20.70;;;;;;;4.59;87.64;98556.38;1833112;77;21208;-71
2021/01/23 05:53:49;;;;;;;38.50;19.95;;;;;;;4.60;87.63;98569.79;1835589;77;21116;-70
2021/01/23 05:56:15;;;;;;;39.67;20.95;;;;;;;4.62;87.88;98574.36;1827655;77;28248;-71
2021/01/23 05:58:43;;;;;;;42.08;21.10;;;;;;;4.63;87.95;98564.25;1830116;77;26662;-70
2021/01/23 06:01:17;;;;;;;34.95;20.27;;;;;;;4.67;87.80;98561.63;1837527;76;22989;-71
2021/01/23 06:03:47;;;;;;;38.90;19.57;;;;;;;4.68;87.99;98563.77;1825640;77;21145;-69
2021/01/23 06:06:13;;;;;;;37.05;19.05;;;;;;;4.73;88.12;98575.07;1831499;77;21228;-71
2021/01/23 06:08:45;;;;;;;38.02;19.23;;;;;;;4.79;88.24;98573.13;1832459;77;28293;-71
2021/01/23 06:11:23;;;;;;;36.30;18.60;;;;;;;4.85;88.32;98573.81;1812820;77;37308;-72
2021/01/23 06:13:53;;;;;;;38.20;18.85;;;;;;;4.87;88.50;98577.08;1812946;77;21190;-71
2021/01/23 06:16:36;;;;;;;38.73;18.77;;;;;;;4.87;88.84;98577.08;1819432;77;21132;-71
2021/01/23 06:19:10;;;;;;;35.80;19.90;;;;;;;4.91;89.01;98576.27;1810841;77;21567;-72
2021/01/23 06:21:48;;;;;;;32.40;18.65;;;;;;;4.98;88.76;98571.55;1812293;77;21586;-72
2021/01/23 06:24:16;;;;;;;;;;;;;;;5.03;88.80;98561.91;1814718;77;22397;-71
2021/01/23 06:26:57;;;;;;;34.05;17.67;;;;;;;5.00;89.19;98572.22;1809970;77;21512;-72
2021/01/23 06:29:37;;;;;;;30.65;16.87;;;;;;;5.07;89.12;98569.78;1812715;77;21134;-72
2021/01/23 06:32:21;;;;;;;33.95;17.60;;;;;;;5.13;89.31;98566.52;1808164;77;21221;-72
2021/01/23 06:34:51;;;;;;;33.75;17.25;;;;;;;5.18;89.28;98566.04;1816394;77;21149;-71
2021/01/23 06:37:33;;;;;;;31.23;18.23;;;;;;;5.23;89.09;98565.06;1815881;77;21160;-70
2021/01/23 06:40:08;;;;;;;36.23;19.07;;;;;;;5.29;89.14;98564.41;1810084;77;22603;-71
2021/01/23 06:42:43;;;;;;;34.10;17.82;;;;;;;5.30;89.42;98566.06;1818716;77;21197;-71
2021/01/23 06:45:27;;;;;;;32.28;16.87;;;;;;;5.31;89.54;98563.75;1813951;77;21606;-70
2021/01/23 06:47:55;;;;;;;34.18;17.65;;;;;;;5.30;90.02;98552.98;1813149;77;21208;-71
2021/01/23 06:50:39;;;;;;;26.97;16.48;;;;;;;5.30;89.94;98551.67;1810952;77;21598;-71
2021/01/23 06:53:09;;;;;;;31.93;17.62;;;;;;;5.38;89.88;98555.59;1812520;77;23248;-72
2021/01/23 06:55:53;;;;;;;34.03;18.50;;;;;;;5.44;89.85;98551.98;1789273;78;21229;-70
2021/01/23 06:58:25;;;;;;;30.23;18.05;;;;;;;5.48;89.64;98555.43;1811105;77;21200;-71
2021/01/23 07:00:56;;;;;;;32.55;18.10;;;;;;;5.52;89.53;98554.63;1813148;77;21715;-71
2021/01/23 07:03:22;;;;;;;35.13;17.90;;;;;;;5.53;89.68;98555.78;1812991;77;21197;-71
2021/01/23 07:05:51;;;;;;;29.25;16.30;;;;;;;5.53;89.96;98549.70;1813523;77;21190;-71
2021/01/23 07:08:28;;;;;;;29.18;16.35;;;;;;;5.48;90.57;98548.89;1811511;77;21211;-71
2021/01/23 07:11:17;;;;;;;28.77;17.17;;;;;;;5.55;90.19;98550.38;1819998;77;21145;-71
2021/01/23 07:14:05;;;;;;;31.95;17.27;;;;;;;5.58;90.30;98548.75;1830391;77;21133;-72
2021/01/23 07:16:35;;;;;;;32.15;17.85;;;;;;;5.59;90.86;98539.89;1826497;77;21903;-71
2021/01/23 07:19:06;;;;;;;28.57;16.60;;;;;;;5.74;90.95;98537.44;1832095;77;22014;-71
2021/01/23 07:21:38;;;;;;;26.97;16.57;;;;;;;5.85;91.17;98528.42;1831609;77;22370;-71
2021/01/23 07:24:06;;;;;;;30.00;16.48;;;;;;;5.88;91.19;98528.91;1805116;77;21704;-71
2021/01/23 07:26:32;;;;;;;32.55;17.42;;;;;;;5.90;91.19;98529.58;1801862;77;21413;-72
2021/01/23 07:28:58;;;;;;;28.83;16.37;;;;;;;5.92;91.19;98521.55;1827564;77;26722;-72
2021/01/23 07:31:29;;;;;;;31.75;17.52;;;;;;;5.94;91.27;98520.88;1832258;77;22130;-72
2021/01/23 07:33:56;;;;;;;32.53;16.67;;;;;;;5.97;91.09;98516.65;1825352;77;21213;-72
2021/01/23 07:36:43;;;;;;;29.87;17.52;;;;;;;5.89;90.99;98481.28;1831071;77;21591;-72
2021/01/23 07:39:14;;;;;;;29.40;16.60;;;;;;;5.89;90.99;98481.28;1828417;77;21195;-72
2021/01/23 07:41:43;;;;;;;27.55;16.15;;;;;;;6.03;91.06;98496.33;1833969;77;21160;-72
2021/01/23 07:44:10;;;;;;;31.75;17.07;;;;;;;6.06;91.01;98488.61;1830144;77;22447;-72
2021/01/23 07:46:41;;;;;;;28.17;17.63;;;;;;;6.08;90.97;98489.27;1831485;76;21204;-72
2021/01/23 07:49:08;;;;;;;34.03;18.75;;;;;;;6.01;91.20;98491.76;1836245;76;21228;-73
2021/01/23 07:51:34;;;;;;;34.23;18.70;;;;;;;5.96;91.32;98508.42;1828939;77;21116;-72
2021/01/23 07:54:09;;;;;;;32.67;17.20;;;;;;;5.95;91.20;98489.78;1830074;77;26780;-72
2021/01/23 07:56:36;;;;;;;30.82;17.70;;;;;;;5.98;91.15;98492.09;1828396;77;23472;-72
2021/01/23 07:59:02;;;;;;;31.62;16.62;;;;;;;5.99;91.30;98488.47;1827160;76;21119;-72
2021/01/23 08:01:28;;;;;;;31.02;16.85;;;;;;;5.92;91.55;98477.81;1826301;77;25321;-72
2021/01/23 08:03:54;;;;;;;28.67;17.10;;;;;;;5.96;91.68;98464.38;1831420;77;28779;-72
2021/01/23 08:06:26;;;;;;;31.57;18.27;;;;;;;5.91;92.26;98468.31;1824170;77;26996;-72
2021/01/23 08:08:53;;;;;;;27.45;16.97;;;;;;;5.92;92.31;98466.53;1830996;77;21104;-72
2021/01/23 08:11:40;;;;;;;28.55;17.12;;;;;;;5.91;92.70;98467.51;1824757;77;21220;-73
2021/01/23 08:14:12;;;;;;;30.75;16.73;;;;;;;5.91;93.29;98467.51;1817727;77;21206;-72
2021/01/23 08:16:54;;;;;;;29.87;16.85;;;;;;;5.91;93.39;98459.64;1814815;77;21121;-72
2021/01/23 08:19:20;;;;;;;29.37;17.15;;;;;;;5.95;93.28;98449.17;1812977;77;21129;-71
2021/01/23 08:22:07;;;;;;;32.25;17.70;;;;;;;6.00;93.40;98450.00;1817437;77;21491;-72
2021/01/23 08:24:33;;;;;;;30.97;18.20;;;;;;;6.00;93.68;98456.55;1815156;77;21204;-71
2021/01/23 08:27:18;;;;;;;32.42;18.77;;;;;;;6.03;93.99;98449.64;1821528;77;21189;-72
2021/01/23 08:29:46;;;;;;;29.72;16.02;;;;;;;6.07;93.82;98455.68;1815697;77;21171;-71
2021/01/23 08:32:12;;;;;;;;;;;;;;;6.16;93.77;98449.13;1820559;77;21116;-72
2021/01/23 08:34:37;;;;;;;24.25;15.38;;;;;;;6.17;94.04;98458.59;1780341;77;21259;-72
2021/01/23 08:37:04;;;;;;;26.17;15.30;;;;;;;6.22;93.96;98462.86;1813380;77;26866;-72
2021/01/23 08:39:47;;;;;;;27.22;15.50;;;;;;;6.23;94.03;98457.92;1817549;77;21212;-72
2021/01/23 08:42:13;;;;;;;29.42;15.93;;;;;;;6.25;94.01;98441.05;1816108;77;21184;-72
2021/01/23 08:44:39;;;;;;;27.73;16.60;;;;;;;6.25;94.11;98425.31;1814929;76;26659;-72
2021/01/23 08:47:04;;;;;;;30.77;17.05;;;;;;;6.25;94.38;98431.06;1816163;76;21363;-72
2021/01/23 08:49:31;;;;;;;31.77;17.45;;;;;;;6.25;94.47;98444.17;1812261;77;27305;-73
2021/01/23 08:51:57;;;;;;;28.80;16.32;;;;;;;6.32;94.42;98443.79;1815345;77;21208;-72
2021/01/23 08:54:23;;;;;;;26.10;16.00;;;;;;;6.34;94.20;98432.66;1813485;77;28349;-72
2021/01/23 08:56:49;;;;;;;29.65;16.67;;;;;;;6.38;94.08;98428.69;1817477;77;26783;-73
2021/01/23 08:59:14;;;;;;;27.67;16.70;;;;;;;6.32;94.38;98437.23;1817911;77;21169;-73
2021/01/23 09:01:41;;;;;;;24.77;16.12;;;;;;;6.41;94.24;98440.14;1815209;77;26727;-73
2021/01/23 09:04:07;;;;;;;28.75;17.32;;;;;;;6.50;93.93;98437.50;1814453;77;21353;-74
2021/01/23 09:06:32;;;;;;;27.42;16.97;;;;;;;6.46;94.20;98437.84;1817157;77;21161;-72
2021/01/23 09:08:58;;;;;;;24.02;15.68;;;;;;;6.53;94.12;98447.65;1819353;77;27046;-73
2021/01/23 09:11:24;;;;;;;29.05;15.55;;;;;;;6.57;93.97;98436.64;1798590;77;22256;-72
2021/01/23 09:13:50;;;;;;;22.90;14.45;;;;;;;6.61;93.73;98437.91;1782693;78;27896;-72
2021/01/23 09:16:16;;;;;;;25.68;15.03;;;;;;;6.67;93.49;98436.41;1795224;77;25294;-72
2021/01/23 09:18:41;;;;;;;26.33;16.02;;;;;;;6.71;93.37;98432.46;1797004;79;28403;-72
2021/01/23 09:21:08;;;;;;;24.98;15.28;;;;;;;6.78;93.08;98426.02;1787044;77;26747;-72
2021/01/23 09:23:33;;;;;;;29.18;15.38;;;;;;;6.81;92.84;98422.53;1787436;79;21251;-72
2021/01/23 09:26:02;;;;;;;25.02;14.28;;;;;;;6.82;92.79;98424.18;1787130;78;26930;-73
2021/01/23 09:28:28;;;;;;;;;;;;;;;6.88;92.58;98420.02;1793441;79;21155;-72
2021/01/23 09:30:54;;;;;;;21.52;13.95;;;;;;;6.90;92.35;98420.69;1792443;79;20236;-72
2021/01/23 09:33:20;;;;;;;26.23;14.33;;;;;;;6.92;92.43;98417.38;1794970;79;21167;-72
2021/01/23 09:35:46;;;;;;;26.05;14.83;;;;;;;7.00;92.18;98408.13;1792135;78;22497;-72
2021/01/23 09:38:11;;;;;;;25.75;15.55;;;;;;;7.04;91.99;98407.30;1793499;79;26891;-72
2021/01/23 09:40:37;;;;;;;26.95;15.13;;;;;;;7.09;91.76;98403.64;1783755;78;25622;-71
2021/01/23 09:43:05;;;;;;;26.37;14.65;;;;;;;7.07;91.65;98396.92;1797845;77;28495;-71
2021/01/23 09:45:30;;;;;;;22.32;13.13;;;;;;;7.04;91.87;98396.80;1789768;77;21297;-71
2021/01/23 09:47:57;;;;;;;24.25;13.50;;;;;;;7.13;91.54;98389.17;1786527;79;21332;-72
2021/01/23 09:50:23;;;;;;;23.90;13.22;;;;;;;7.17;91.20;98403.55;1788574;78;21108;-73
2021/01/23 09:52:49;;;;;;;25.82;13.43;;;;;;;7.22;91.15;98391.72;1762351;79;25282;-73
2021/01/23 09:55:15;;;;;;;23.50;13.93;;;;;;;7.21;91.00;98397.48;1796243;78;21480;-72
2021/01/23 09:57:43;;;;;;;22.73;13.85;;;;;;;7.18;90.83;98394.70;1787261;78;21532;-73
2021/01/23 10:00:12;;;;;;;20.90;13.08;;;;;;;7.24;90.71;98392.34;1788216;79;21280;-72
2021/01/23 10:02:39;;;;;;;19.65;12.43;;;;;;;7.30;90.62;98383.75;1788568;79;21228;-72
2021/01/23 10:05:07;;;;;;;25.43;13.70;;;;;;;7.31;90.39;98392.77;1797668;79;21720;-72
2021/01/23 10:07:35;;;;;;;21.48;12.25;;;;;;;7.35;90.44;98399.81;1791076;79;21605;-72
2021/01/23 10:10:04;;;;;;;20.62;12.33;;;;;;;7.45;90.09;98389.84;1795168;79;21095;-73
2021/01/23 10:12:31;;;;;;;21.10;12.00;;;;;;;7.45;89.89;98389.04;1807287;77;21819;-72
2021/01/23 10:14:57;;;;;;;19.70;11.18;;;;;;;7.45;89.73;98383.28;1815279;77;21165;-72
2021/01/23 10:17:23;;;;;;;21.57;12.00;;;;;;;7.51;89.54;98384.38;1819170;77;25498;-72
2021/01/23 10:19:49;;;;;;;22.87;12.50;;;;;;;7.57;89.28;98390.23;1818510;77;20932;-72
2021/01/23 10:22:16;;;;;;;21.50;12.37;;;;;;;7.52;89.06;98384.20;1817525;77;21598;-72
2021/01/23 10:24:42;;;;;;;22.00;12.07;;;;;;;7.52;88.85;98386.83;1818301;77;21390;-73
2021/01/23 10:27:08;;;;;;;20.40;11.15;;;;;;;7.57;88.74;98378.89;1818625;77;26849;-72
2021/01/23 10:29:34;;;;;;;18.15;11.20;;;;;;;7.59;88.71;98371.66;1812156;77;25334;-73
2021/01/23 10:32:01;;;;;;;20.80;11.68;;;;;;;7.50;88.58;98375.70;1816388;77;21606;-72
2021/01/23 10:34:28;;;;;;;19.62;11.50;;;;;;;7.51;88.76;98372.05;1816042;77;21190;-73
2021/01/23 10:36:54;;;;;;;21.25;12.37;;;;;;;7.54;88.61;98370.38;1819783;77;21649;-72
2021/01/23 10:39:20;;;;;;;20.02;11.85;;;;;;;7.50;88.52;98366.51;1816128;77;21566;-73
2021/01/23 10:41:45;;;;;;;19.95;11.78;;;;;;;7.55;88.33;98362.83;1817238;77;24607;-72
2021/01/23 10:44:11;;;;;;;17.85;10.82;;;;;;;7.72;88.27;98370.52;1816056;77;28364;-72
2021/01/23 10:46:37;;;;;;;19.80;11.22;;;;;;;7.77;87.76;98361.61;1820357;77;20934;-73
2021/01/23 10:49:04;;;;;;;21.33;11.15;;;;;;;7.77;87.68;98357.67;1815427;77;21447;-73
2021/01/23 10:51:30;;;;;;;21.60;10.98;;;;;;;7.76;87.68;98361.28;1815115;77;21116;-72
2021/01/23 10:53:55;;;;;;;23.25;11.95;;;;;;;7.77;87.66;98360.77;1819319;77;25648;-72
2021/01/23 10:56:21;;;;;;;22.58;12.40;;;;;;;7.76;87.56;98353.91;1812115;77;20947;-72
2021/01/23 10:58:47;;;;;;;19.07;11.57;;;;;;;7.78;87.62;98357.96;1815319;77;21047;-72
2021/01/23 11:01:13;;;;;;;19.40;11.45;;;;;;;7.78;87.56;98357.96;1813555;76;21041;-74
2021/01/23 11:03:39;;;;;;;18.10;10.93;;;;;;;7.77;87.69;98364.23;1817375;77;21194;-73
2021/01/23 11:06:05;;;;;;;18.62;11.65;;;;;;;7.76;87.65;98374.42;1812683;77;25496;-73
2021/01/23 11:08:31;;;;;;;17.32;11.00;;;;;;;7.75;87.65;98364.89;1818940;77;21165;-73
2021/01/23 11:10:57;;;;;;;20.25;10.70;;;;;;;7.72;87.67;98357.38;1816133;77;20926;-70
2021/01/23 11:13:23;;;;;;;19.20;11.40;;;;;;;7.82;87.54;98361.06;1831128;77;21321;-72
2021/01/23 11:15:49;;;;;;;17.17;10.35;;;;;;;7.83;87.54;98367.45;1828645;77;26867;-72
2021/01/23 11:18:15;;;;;;;18.37;10.98;;;;;;;7.87;87.46;98362.63;1829746;77;21218;-73
2021/01/23 11:20:41;;;;;;;18.10;10.48;;;;;;;7.75;87.62;98363.58;1823232;77;21169;-74
2021/01/23 11:23:07;;;;;;;19.40;11.30;;;;;;;7.79;87.50;98367.48;1803364;77;21598;-72
2021/01/23 11:25:33;;;;;;;21.60;12.28;;;;;;;7.80;87.52;98368.29;1820199;77;21182;-71
2021/01/23 11:27:58;;;;;;;25.92;12.60;;;;;;;7.80;87.64;98362.56;1820159;77;20884;-72
2021/01/23 11:30:25;;;;;;;22.58;11.65;;;;;;;7.80;87.52;98359.93;1820443;77;20918;-73
2021/01/23 11:32:51;;;;;;;20.80;11.22;;;;;;;7.71;87.89;98358.39;1824132;77;21216;-73
2021/01/23 11:35:17;;;;;;;22.87;11.37;;;;;;;7.72;88.00;98356.06;1830074;77;21221;-73